Pleasant Hill, Illinois
Current Conditions -  °F | °C
As of 3:15 PM on Saturday 20 Dec 2014 (Local Time) from KPPQ Reporting Station
Haze Haze  
Wind Chill:   Ceiling: 2300
Heat Index:   Visibility: 4mi
Dew Point:   Wind: 3mph
Humidity: 91%   Direction: 130°SE
Pressure: 30.21"   Gusts: NA
Location:  39.44°N, 90.87°W
Report Text: KPPQ 202115Z AUTO 13003KT 4SM BR SCT010 BKN023 OVC029 03/01 A3021 RMK AO2 T00250011
Loading
Personal Weather Stations






























Interactive Weather Map New forecast layout! Learn more

10-Day Weather Forecast

Advertisements
Track Severe Weather on mobile